Medicine Hat Airport
CYXH : rendu visible

Aérodrome :











RETROUVEZ-NOUS SUR...

 
LOGIN :

S'inscrire | Disclaimer

   EN    FR    IT 

 









Légende :    VFR   VFR Marginal   IFR   IFR Intensif   IFR Très Intensif
Visi : 
Plafond : 
>= 8 km
>= 3000ft
5 à 8 km
1000 à 3000 ft
1500m à 5 km
500 à 1000 ft
800 à 1500m
200 à 500 ft
< 800m
< 200 ft
Symboles :   Orages  Brouillard  Fortes neiges  Fortes précipitations  Vent > 20 kt






- Altitude de l'aérodrome : 2352 ft
- Code IATA : YXH


CYXH - Medicine Hat

DERNIER METAR :
  • 190400Z AUTO 07003KT 030V110 9SM CLR M18/M20 A3039 RMK SLP361

METARs EXPIRÉS :
  • 190300Z 07005KT 15SM FEW035 SCT080 M17/M20 A3038 RMK SC1AC2 LAST STFD OBS/NEXT 191300Z SLP356
  • 190200Z 06005KT 15SM BKN033 BKN080 M16/M19 A3038 RMK SC4AC3 SLP356

TAF TAF CYXH
Valide du 19 à 00h jusqu'au 19 à 12h UTC


182339Z 1900/1912 09007KT 3SM -SN OVC030
BECMG 1900/1901 6SM -SN SCT030 OVC050
FM190100 09007KT P6SM SCT030 BKN070
TEMPO 1901/1903 4SM -SN BKN030
FM190500 12005KT P6SM FEW070
FM191000 12005KT P6SM SKC
TEMPO 1910/1912 5SM IC HZ RMK NXT FCST BY 190600Z



MET'MAP, la Météo Aéronautique d'un coup d'oeil ! - Copyright ORBIFLY Décembre 2007 - Disclaimer

ORBIFLY MET'MAP TEAM :

Programmation & Développement : Alexandra Zaïnal
Sur une idée originale de : Baudouin d'Aumeries
Assistance à la programmation : Marc-Olivier Méhu
Soutien technique & logistique : Manuel Goepfert

Contact : metmap@orbifly.com




SOURCES & CREDITS :

   NOAA       Earth
Advisory